createdAt,value
2022-08-26T00:02:32.000Z,98.77387
2022-08-26T00:07:34.112Z,101.94872
2022-08-26T00:12:37.540Z,102.35476
2022-08-26T00:17:40.279Z,102.76289
2022-08-26T00:22:42.062Z,103.58549
2022-08-26T00:27:43.759Z,108.70588
2022-08-26T00:32:46.393Z,108.70588
2022-08-26T00:37:48.284Z,118.0113
2022-08-26T00:42:49.972Z,116.54902
2022-08-26T00:47:51.758Z,110.93767
2022-08-26T00:52:54.156Z,114.16575
2022-08-26T00:57:55.928Z,109.5914
2022-08-26T01:02:58.514Z,106.10526
2022-08-26T01:08:00.454Z,103.17313
2022-08-26T01:13:05.136Z,101.54476
2022-08-26T01:18:06.731Z,100.34518
2022-08-26T01:23:08.732Z,101.54476
2022-08-26T01:28:10.574Z,102.35476
2022-08-26T01:33:12.246Z,99.55556
2022-08-26T01:38:14.035Z,95.35135
2022-08-26T01:43:15.462Z,92.79227
2022-08-26T01:48:18.009Z,91.72182
2022-08-26T01:53:19.676Z,80.28319
2022-08-26T01:58:23.454Z,76.75862
2022-08-26T02:03:25.482Z,72.06653
2022-08-26T02:08:27.165Z,67.44689
2022-08-26T02:13:29.592Z,60.66667
2022-08-26T02:18:31.285Z,53.21986
2022-08-26T02:23:32.911Z,48.94037
2022-08-26T02:28:35.993Z,46.83806
2022-08-26T02:33:37.658Z,46.49584
2022-08-26T02:38:44.653Z,46.15589
2022-08-26T02:43:47.826Z,46.32558
2022-08-26T02:48:49.599Z,44.65359
2022-08-26T02:53:51.204Z,44
2022-08-26T02:58:52.992Z,44.65359
2022-08-26T03:03:55.971Z,44
2022-08-26T03:08:57.853Z,43.35484
2022-08-26T03:14:00.150Z,42.24561
2022-08-26T03:19:03.800Z,43.35484
2022-08-26T03:24:05.630Z,43.19485
2022-08-26T03:29:07.417Z,44.1626
2022-08-26T03:34:09.389Z,43.51535
2022-08-26T03:39:13.050Z,44.98361
2022-08-26T03:44:15.239Z,45.4827
2022-08-26T03:49:17.276Z,45.4827
2022-08-26T03:54:19.156Z,48.94037
2022-08-26T03:59:21.018Z,47.18258
2022-08-26T04:04:24.569Z,49.11945
2022-08-26T04:09:26.578Z,48.23012
2022-08-26T04:14:28.531Z,46.49584
2022-08-26T04:19:30.383Z,46.49584
2022-08-26T04:24:32.446Z,45.81818
2022-08-26T04:29:34.507Z,44.98361
2022-08-26T04:34:36.886Z,45.65017
2022-08-26T04:39:38.747Z,47.87858
2022-08-26T04:44:40.200Z,47.52941
2022-08-26T04:49:42.063Z,46.83806
2022-08-26T04:54:43.508Z,48.94037
2022-08-26T04:59:45.318Z,48.94037
2022-08-26T05:04:48.197Z,47.18258
2022-08-26T05:09:53.675Z,51.13043
2022-08-26T05:14:56.449Z,51.88091
2022-08-26T05:19:59.220Z,54.19678
2022-08-26T05:25:01.118Z,56.82051
2022-08-26T05:30:02.894Z,58.49814
2022-08-26T05:35:08.908Z,57.23529
2022-08-26T05:40:10.920Z,58.07407
2022-08-26T05:45:12.779Z,64.54795
2022-08-26T05:50:14.623Z,66.46521
2022-08-26T05:55:16.451Z,69.71429
2022-08-26T06:00:19.915Z,77.33333
2022-08-26T06:05:22.630Z,87.25581
2022-08-26T06:10:31.580Z,84.63927
2022-08-26T06:15:35.238Z,95.72414
2022-08-26T06:20:37.275Z,98.38596
2022-08-26T06:25:38.752Z,99.55556
2022-08-26T06:30:40.602Z,117.52113
2022-08-26T06:35:42.604Z,144.65147
2022-08-26T06:40:44.267Z,147.97351
2022-08-26T06:45:45.938Z,140.80511
2022-08-26T06:50:49.918Z,147.30033
2022-08-26T06:55:52.021Z,177.33333
2022-08-26T07:00:54.005Z,192.3871
2022-08-26T07:05:56.115Z,206.12766
2022-08-26T07:10:59.847Z,224
2022-08-26T07:16:03.128Z,214.17544
2022-08-26T07:21:06.291Z,211.82609
2022-08-26T07:26:07.984Z,206.12766
2022-08-26T07:31:09.888Z,241.58454
2022-08-26T07:36:11.916Z,237.33333
2022-08-26T07:41:14.047Z,234.56604
2022-08-26T07:46:16.532Z,253.54774
2022-08-26T07:51:18.560Z,219
2022-08-26T07:56:21.743Z,225.27854
2022-08-26T08:01:24.044Z,220.23318
2022-08-26T08:06:27.053Z,229.18519
2022-08-26T08:11:29.529Z,253.54774
2022-08-26T08:16:33.351Z,217.77778
2022-08-26T08:21:36.836Z,248.9505
2022-08-26T08:26:38.623Z,263.17098
2022-08-26T08:31:56.983Z,292.0226
2022-08-26T08:36:59.846Z,278.78261
2022-08-26T08:42:01.652Z,300.06936
2022-08-26T08:47:04.062Z,440.77419
2022-08-26T08:52:05.695Z,475.03448
2022-08-26T08:57:07.377Z,466.0339
2022-08-26T09:02:09.011Z,553.90099
2022-08-26T09:07:12.404Z,836.75362
2022-08-26T09:12:13.957Z,921.77778
2022-08-26T09:17:15.435Z,1227.33333
2022-08-26T09:22:18.141Z,1446.43902
2022-08-26T09:27:20.158Z,2068.13793
2022-08-26T09:32:22.608Z,2877.33333
2022-08-26T09:37:24.499Z,2144
2022-08-26T09:42:25.971Z,1410.66667
2022-08-26T09:47:27.439Z,2068.13793
2022-08-26T09:52:29.907Z,1608.86486
2022-08-26T09:57:31.405Z,1704
2022-08-26T10:02:34.592Z,1931.09677
2022-08-26T10:07:37.001Z,1931.09677
2022-08-26T10:12:38.455Z,3567.52941
2022-08-26T10:17:40.345Z,3024
2022-08-26T10:22:42.008Z,2622.26087
2022-08-26T10:27:52.668Z,2068.13793
2022-08-26T10:32:55.074Z,2510.66667
2022-08-26T10:37:57.145Z,2313.23077
2022-08-26T10:42:59.052Z,2408
2022-08-26T10:48:00.835Z,2877.33333
2022-08-26T10:53:02.947Z,3794
2022-08-26T10:58:06.497Z,3186.10526
2022-08-26T11:03:22.518Z,3794
2022-08-26T11:08:25.657Z,3794
2022-08-26T11:13:27.511Z,3567.52941
2022-08-26T11:18:29.432Z,3366.22222
2022-08-26T11:23:31.388Z,3794
2022-08-26T11:28:33.135Z,3794
2022-08-26T11:33:35.134Z,3567.52941
2022-08-26T11:38:36.999Z,3567.52941
2022-08-26T11:43:38.882Z,3567.52941
2022-08-26T11:48:40.758Z,3794
2022-08-26T11:53:42.562Z,6104
2022-08-26T11:58:44.495Z,7644
2022-08-26T12:03:45.982Z,7644
2022-08-26T12:08:48.778Z,3794
2022-08-26T12:13:50.243Z,3186.10526
2022-08-26T12:18:53.462Z,6104
2022-08-26T12:23:56.255Z,6788.44444
2022-08-26T12:28:58.168Z,6104
2022-08-26T12:33:59.958Z,5077.33333
2022-08-26T12:39:02.047Z,7644
2022-08-26T12:44:03.548Z,5544
2022-08-26T12:49:05.034Z,5544
2022-08-26T12:54:06.695Z,4682.46154
2022-08-26T12:59:08.853Z,6104
2022-08-26T13:04:12.689Z,6104
2022-08-26T13:09:15.178Z,6788.44444
2022-08-26T13:14:23.833Z,8744
2022-08-26T13:19:26.236Z,6788.44444
2022-08-26T13:24:28.241Z,7644
2022-08-26T13:29:29.702Z,15344
2022-08-26T13:34:32.359Z,12264
2022-08-26T13:39:34.492Z,12264
2022-08-26T13:44:36.045Z,15344
2022-08-26T13:49:37.681Z,15344
2022-08-26T13:54:39.346Z,12264
2022-08-26T13:59:40.847Z,15344
2022-08-26T14:04:42.338Z,15344
2022-08-26T14:09:44.196Z,12264
2022-08-26T14:14:45.665Z,15344
2022-08-26T14:19:47.700Z,10210.66667
2022-08-26T14:24:49.520Z,10210.66667
2022-08-26T14:29:51.295Z,15344
2022-08-26T14:34:53.042Z,6788.44444
2022-08-26T14:39:55.202Z,2408
2022-08-26T14:44:57.063Z,6788.44444
2022-08-26T14:49:58.853Z,10210.66667
2022-08-26T14:55:00.558Z,3567.52941
2022-08-26T15:00:02.512Z,4344
2022-08-26T15:05:04.635Z,3186.10526
2022-08-26T15:10:06.745Z,4344
2022-08-26T15:15:08.652Z,4682.46154
2022-08-26T15:20:10.690Z,3024
2022-08-26T15:25:12.642Z,3024
2022-08-26T15:30:14.425Z,1565.05263
2022-08-26T15:35:16.183Z,1283.13043
2022-08-26T15:40:18.561Z,1201.14286
2022-08-26T15:45:26.188Z,1064
2022-08-26T15:50:28.347Z,799.55556
2022-08-26T15:55:30.244Z,341.41935
2022-08-26T16:00:32.097Z,606.36559
2022-08-26T16:05:33.912Z,765.33333
2022-08-26T16:10:35.937Z,686.16867
2022-08-26T16:15:37.837Z,566.22222
2022-08-26T16:20:39.628Z,429.03937
2022-08-26T16:25:52.086Z,733.74359
2022-08-26T16:30:53.816Z,714
2022-08-26T16:35:55.676Z,599.31915
2022-08-26T16:40:57.740Z,677.33333
2022-08-26T16:45:59.578Z,448.91803
2022-08-26T16:51:01.556Z,723.74684
2022-08-26T16:56:03.705Z,695.21951
2022-08-26T17:01:05.580Z,686.16867
2022-08-26T17:06:07.457Z,542.05825
2022-08-26T17:11:09.413Z,466.0339
2022-08-26T17:16:11.300Z,380.87943
2022-08-26T17:21:13.098Z,384
2022-08-26T17:26:15.042Z,436.8
2022-08-26T17:31:16.898Z,560
2022-08-26T17:36:18.824Z,530.66667
2022-08-26T17:41:21.019Z,536.30769
2022-08-26T17:46:22.793Z,542.05825
2022-08-26T17:51:24.684Z,877.33333
2022-08-26T17:56:26.475Z,733.74359
2022-08-26T18:01:28.299Z,723.74684
2022-08-26T18:06:30.014Z,644
2022-08-26T18:11:32.271Z,592.42105
2022-08-26T18:16:34.083Z,553.90099
2022-08-26T18:21:35.938Z,824
2022-08-26T18:26:37.812Z,1312.88889
2022-08-26T18:31:39.591Z,1931.09677
2022-08-26T18:36:41.367Z,2744
2022-08-26T18:41:43.348Z,2144
2022-08-26T18:46:44.789Z,2068.13793
2022-08-26T18:51:46.233Z,2408
2022-08-26T18:56:47.928Z,2313.23077
2022-08-26T19:01:49.502Z,1151.84314
2022-08-26T19:06:52.326Z,799.55556
2022-08-26T19:11:54.183Z,787.83562
2022-08-26T19:16:55.727Z,754.52632
2022-08-26T19:21:57.957Z,836.75362
2022-08-26T19:26:59.599Z,921.77778
2022-08-26T19:32:01.287Z,1044
2022-08-26T19:37:02.944Z,1024.70175
2022-08-26T19:42:04.772Z,1064
2022-08-26T19:47:06.448Z,953.83607
2022-08-26T19:52:07.939Z,877.33333
2022-08-26T19:57:09.706Z,891.69231
2022-08-26T20:02:13.384Z,744
2022-08-26T20:07:18.777Z,668.70588
2022-08-26T20:12:21.217Z,509.13761
2022-08-26T20:17:22.662Z,470.49573
2022-08-26T20:22:24.427Z,479.65217
2022-08-26T20:27:26.287Z,380.87943
2022-08-26T20:32:39.703Z,421.51938
2022-08-26T20:37:41.668Z,425.25
2022-08-26T20:42:43.656Z,519.70093
2022-08-26T20:47:45.089Z,380.87943
2022-08-26T20:52:46.779Z,494
2022-08-26T20:57:48.611Z,384
2022-08-26T21:02:50.199Z,403.70149
2022-08-26T21:07:52.085Z,384
2022-08-26T21:12:54.784Z,400.2963
2022-08-26T21:17:56.668Z,396.94118
2022-08-26T21:22:58.386Z,387.16547
2022-08-26T21:28:00.165Z,377.80282
2022-08-26T21:33:02.054Z,336.35669
2022-08-26T21:38:03.829Z,349.26316
2022-08-26T21:43:05.915Z,363.04762
2022-08-26T21:48:07.563Z,374.76923
2022-08-26T21:53:09.560Z,357.42282
2022-08-26T21:58:11.451Z,315.08434
2022-08-26T22:03:13.347Z,321.91411
2022-08-26T22:08:15.110Z,308.49704
2022-08-26T22:13:17.076Z,290.06742
2022-08-26T22:18:18.808Z,315.08434
2022-08-26T22:23:20.593Z,294
2022-08-26T22:28:22.344Z,308.49704
2022-08-26T22:33:24.220Z,326.6087
2022-08-26T22:38:25.997Z,417.84615
2022-08-26T22:43:28.219Z,479.65217
2022-08-26T22:48:29.984Z,461.64706
2022-08-26T22:53:32.743Z,530.66667
2022-08-26T22:58:37.890Z,494
2022-08-26T23:03:40.121Z,466.0339
2022-08-26T23:08:41.954Z,453.09091
2022-08-26T23:13:44.064Z,498.95495
2022-08-26T23:18:45.669Z,400.2963
2022-08-26T23:23:47.131Z,429.03937
2022-08-26T23:28:48.936Z,410.66667
2022-08-26T23:33:50.415Z,494
2022-08-26T23:38:52.932Z,436.8
2022-08-26T23:43:55.343Z,393.63504
2022-08-26T23:48:57.087Z,400.2963
2022-08-26T23:53:58.545Z,414.22901
2022-08-26T23:59:00.217Z,444.81301
